Shutesbury, Massachusetts
Current Conditions -  °F | °C
As of 7:30 AM on Monday 24 Nov 2014 (Local Time) from KORE Reporting Station
Moderate Rain Moderate Rain  
Wind Chill: 50°   Ceiling: 900
Heat Index: 50°   Visibility: 3mi
Dew Point: 50°   Wind: 6mph
Humidity: 100%   Direction: 120°ESE
Pressure: 29.72"   Gusts: NA
Location:  42.46°N, 72.41°W
Report Text: KORE 241230Z AUTO 12005KT 3SM RA BR OVC009 10/10 A2972 RMK AO2 CIG 007V011 P0010 T01000100
Loading
Personal Weather Stations






























Interactive Weather Map New forecast layout! Learn more

10-Day Weather Forecast

Advertisements
Track Severe Weather on mobile